De Haan, Belgium
Current Conditions -  °F | °C
As of 6:20 AM on Friday 31 Oct 2014 (Local Time) from EBOS Reporting Station
Clear Clear  
Wind Chill: 11°   Ceiling: Unl
Heat Index: 11°   Visibility: 4mi
Dew Point:   Wind: 3mph
Humidity: 88%   Direction: 160°SSE
Pressure: 30.12"   Gusts: NA
Location:  51.27°N, 3.03°E
Report Text: EBOS 310520Z 16003KT 130V190 7000 NSC 11/09 Q1020 NOSIG
Loading
Personal Weather Stations






























Interactive Weather Map
Tropical Storm Tracking
New forecast layout! Learn more

10-Day Weather Forecast

Advertisements
Track Severe Weather on mobile